createdAt,value
2022-10-04T00:00:14.845Z,0.00
2022-10-04T00:01:14.830Z,0.00
2022-10-04T00:02:14.853Z,0.00
2022-10-04T00:03:14.857Z,0.00
2022-10-04T00:04:14.789Z,0.00
2022-10-04T00:05:14.772Z,0.00
2022-10-04T00:06:14.765Z,0.00
2022-10-04T00:07:14.774Z,0.00
2022-10-04T00:08:14.740Z,0.00
2022-10-04T00:09:14.731Z,0.00
2022-10-04T00:10:14.713Z,0.00
2022-10-04T00:11:14.717Z,0.00
2022-10-04T00:12:14.819Z,0.00
2022-10-04T00:13:14.692Z,0.00
2022-10-04T00:14:14.677Z,0.00
2022-10-04T00:15:14.667Z,0.00
2022-10-04T00:16:14.710Z,0.00
2022-10-04T00:17:14.665Z,0.00
2022-10-04T00:18:14.641Z,0.00
2022-10-04T00:19:14.626Z,0.00
2022-10-04T00:20:14.626Z,0.00
2022-10-04T00:21:14.610Z,0.00
2022-10-04T00:22:14.601Z,0.00
2022-10-04T00:23:14.599Z,0.00
2022-10-04T00:24:14.575Z,0.00
2022-10-04T00:25:14.565Z,0.00
2022-10-04T00:26:14.572Z,0.00
2022-10-04T00:27:14.535Z,0.00
2022-10-04T00:28:14.622Z,0.00
2022-10-04T00:29:14.532Z,0.00
2022-10-04T00:30:14.505Z,0.00
2022-10-04T00:31:14.614Z,0.00
2022-10-04T00:32:14.481Z,0.00
2022-10-04T00:33:14.469Z,0.00
2022-10-04T00:34:14.500Z,0.00
2022-10-04T00:35:14.447Z,0.00
2022-10-04T00:36:14.440Z,0.00
2022-10-04T00:37:14.464Z,0.00
2022-10-04T00:38:14.421Z,0.00
2022-10-04T00:39:14.414Z,0.00
2022-10-04T00:40:14.410Z,0.00
2022-10-04T00:41:14.382Z,0.00
2022-10-04T00:42:14.378Z,0.00
2022-10-04T00:43:14.361Z,0.00
2022-10-04T00:44:14.351Z,0.00
2022-10-04T00:45:14.354Z,0.00
2022-10-04T00:46:14.395Z,0.00
2022-10-04T00:47:14.321Z,0.00
2022-10-04T00:48:14.308Z,0.00
2022-10-04T00:49:14.379Z,0.00
2022-10-04T00:50:14.361Z,0.00
2022-10-04T00:51:14.298Z,0.00
2022-10-04T00:52:14.262Z,0.00
2022-10-04T00:53:14.256Z,0.00
2022-10-04T00:54:14.252Z,0.00
2022-10-04T00:55:14.251Z,0.00
2022-10-04T00:56:14.222Z,0.00
2022-10-04T00:57:14.212Z,0.00
2022-10-04T00:58:14.198Z,0.00
2022-10-04T00:59:14.184Z,0.00
2022-10-04T01:00:14.197Z,0.00
2022-10-04T01:01:14.248Z,0.00
2022-10-04T01:02:14.198Z,0.00
2022-10-04T01:03:14.150Z,0.00
2022-10-04T01:04:14.146Z,0.00
2022-10-04T01:05:14.129Z,0.00
2022-10-04T01:06:14.127Z,0.00
2022-10-04T01:07:14.118Z,0.00
2022-10-04T01:08:14.096Z,0.00
2022-10-04T01:09:14.088Z,0.00
2022-10-04T01:10:14.070Z,0.00
2022-10-04T01:11:14.061Z,0.00
2022-10-04T01:12:14.066Z,0.00
2022-10-04T01:13:14.038Z,0.00
2022-10-04T01:14:14.033Z,0.00
2022-10-04T01:15:14.016Z,0.00
2022-10-04T01:16:14.054Z,0.00
2022-10-04T01:17:13.993Z,0.00
2022-10-04T01:18:14.008Z,0.00
2022-10-04T01:19:13.981Z,0.00
2022-10-04T01:20:13.969Z,0.00
2022-10-04T01:21:14.005Z,0.00
2022-10-04T01:22:13.972Z,0.00
2022-10-04T01:23:13.932Z,0.00
2022-10-04T01:24:13.936Z,0.00
2022-10-04T01:25:13.909Z,0.00
2022-10-04T01:26:13.898Z,0.00
2022-10-04T01:27:13.907Z,0.00
2022-10-04T01:28:13.901Z,0.00
2022-10-04T01:29:13.873Z,0.00
2022-10-04T01:30:13.859Z,0.00
2022-10-04T01:31:13.889Z,0.00
2022-10-04T01:32:13.833Z,0.00
2022-10-04T01:33:13.849Z,0.00
2022-10-04T01:34:13.810Z,0.00
2022-10-04T01:35:13.806Z,0.00
2022-10-04T01:36:13.804Z,0.00
2022-10-04T01:37:13.797Z,0.00
2022-10-04T01:38:13.776Z,0.00
2022-10-04T01:39:13.768Z,0.00
2022-10-04T01:40:13.750Z,0.00
2022-10-04T01:41:13.747Z,0.00
2022-10-04T01:42:13.722Z,0.00
2022-10-04T01:43:13.739Z,0.00
2022-10-04T01:44:13.700Z,0.00
2022-10-04T01:45:13.691Z,0.00
2022-10-04T01:46:13.750Z,0.00
2022-10-04T01:47:13.707Z,0.00
2022-10-04T01:48:13.664Z,0.00
2022-10-04T01:49:13.700Z,0.00
2022-10-04T01:50:15.921Z,0.00
2022-10-04T01:51:13.628Z,0.00
2022-10-04T01:52:13.619Z,0.00
2022-10-04T01:53:13.626Z,0.00
2022-10-04T01:54:13.601Z,0.00
2022-10-04T01:55:13.589Z,0.00
2022-10-04T01:56:13.586Z,0.00
2022-10-04T01:57:13.597Z,0.00
2022-10-04T01:58:13.558Z,0.00
2022-10-04T01:59:13.539Z,0.00
2022-10-04T02:00:13.529Z,0.00
2022-10-04T02:01:13.574Z,0.00
2022-10-04T02:02:13.517Z,0.00
2022-10-04T02:03:13.565Z,0.00
2022-10-04T02:04:15.458Z,0.00
2022-10-04T02:05:13.497Z,0.00
2022-10-04T02:06:13.472Z,0.00
2022-10-04T02:07:13.464Z,0.00
2022-10-04T02:08:13.448Z,0.00
2022-10-04T02:09:13.430Z,0.00
2022-10-04T02:10:13.957Z,0.00
2022-10-04T02:11:13.411Z,0.00
2022-10-04T02:12:13.407Z,0.00
2022-10-04T02:13:13.388Z,0.00
2022-10-04T02:14:13.396Z,0.00
2022-10-04T02:15:13.369Z,0.00
2022-10-04T02:16:13.434Z,0.00
2022-10-04T02:17:13.343Z,0.00
2022-10-04T02:18:13.357Z,0.00
2022-10-04T02:19:13.320Z,0.00
2022-10-04T02:20:13.312Z,0.00
2022-10-04T02:21:13.297Z,0.00
2022-10-04T02:22:13.323Z,0.00
2022-10-04T02:23:13.286Z,0.00
2022-10-04T02:24:13.275Z,0.00
2022-10-04T02:25:13.261Z,0.00
2022-10-04T02:26:13.261Z,0.00
2022-10-04T02:27:13.250Z,0.00
2022-10-04T02:28:13.308Z,0.00
2022-10-04T02:29:13.222Z,0.00
2022-10-04T02:30:13.218Z,0.00
2022-10-04T02:31:13.246Z,0.00
2022-10-04T02:32:13.195Z,0.00
2022-10-04T02:33:13.192Z,0.00
2022-10-04T02:34:13.158Z,0.00
2022-10-04T02:35:13.156Z,0.00
2022-10-04T02:36:13.161Z,0.00
2022-10-04T02:37:13.128Z,0.00
2022-10-04T02:38:13.119Z,0.00
2022-10-04T02:39:13.151Z,0.00
2022-10-04T02:40:13.111Z,0.00
2022-10-04T02:41:13.093Z,0.00
2022-10-04T02:42:13.107Z,0.00
2022-10-04T02:43:13.075Z,0.00
2022-10-04T02:44:13.064Z,0.00
2022-10-04T02:45:13.048Z,0.00
2022-10-04T02:46:13.075Z,0.00
2022-10-04T02:47:13.030Z,0.00
2022-10-04T02:48:13.032Z,0.00
2022-10-04T02:49:13.012Z,0.00
2022-10-04T02:50:12.995Z,0.00
2022-10-04T02:51:12.986Z,0.00
2022-10-04T02:52:12.968Z,0.00
2022-10-04T02:53:12.976Z,0.00
2022-10-04T02:54:12.958Z,0.00
2022-10-04T02:55:12.934Z,0.00
2022-10-04T02:56:12.933Z,0.00
2022-10-04T02:57:12.920Z,0.00
2022-10-04T02:58:12.912Z,0.00
2022-10-04T02:59:12.926Z,0.00
2022-10-04T03:00:12.894Z,0.00
2022-10-04T03:01:12.912Z,0.00
2022-10-04T03:02:12.922Z,0.00
2022-10-04T03:03:12.869Z,0.00
2022-10-04T03:04:12.843Z,0.00
2022-10-04T03:05:12.852Z,0.00
2022-10-04T03:06:12.811Z,0.00
2022-10-04T03:07:12.799Z,0.00
2022-10-04T03:08:12.789Z,0.00
2022-10-04T03:09:12.784Z,0.00
2022-10-04T03:10:12.782Z,0.00
2022-10-04T03:11:12.759Z,0.00
2022-10-04T03:12:12.757Z,0.00
2022-10-04T03:13:12.746Z,0.00
2022-10-04T03:14:12.739Z,0.00
2022-10-04T03:15:12.738Z,0.00
2022-10-04T03:16:12.757Z,0.00
2022-10-04T03:17:12.697Z,0.00
2022-10-04T03:18:12.687Z,0.00
2022-10-04T03:19:12.679Z,0.00
2022-10-04T03:20:12.667Z,0.00
2022-10-04T03:21:12.675Z,0.00
2022-10-04T03:22:12.638Z,0.00
2022-10-04T03:23:12.627Z,0.00
2022-10-04T03:24:12.626Z,0.00
2022-10-04T03:25:12.635Z,0.00
2022-10-04T03:26:12.614Z,0.00
2022-10-04T03:27:12.586Z,0.00
2022-10-04T03:28:12.648Z,0.00
2022-10-04T03:29:12.569Z,0.00
2022-10-04T03:30:12.561Z,0.00
2022-10-04T03:31:12.604Z,0.00
2022-10-04T03:32:12.559Z,0.00
2022-10-04T03:33:12.531Z,0.00
2022-10-04T03:34:12.522Z,0.00
2022-10-04T03:35:12.502Z,0.00
2022-10-04T03:36:12.496Z,0.00
2022-10-04T03:37:12.496Z,0.00
2022-10-04T03:38:12.478Z,0.00
2022-10-04T03:39:12.459Z,0.00
2022-10-04T03:40:12.446Z,0.00
2022-10-04T03:41:12.445Z,0.00
2022-10-04T03:42:12.465Z,0.00
2022-10-04T03:43:12.414Z,0.00
2022-10-04T03:44:12.403Z,0.00
2022-10-04T03:45:12.393Z,0.00
2022-10-04T03:46:12.506Z,0.00
2022-10-04T03:47:12.369Z,0.00
2022-10-04T03:48:12.367Z,0.00
2022-10-04T03:49:12.342Z,0.00
2022-10-04T03:50:12.345Z,0.00
2022-10-04T03:51:21.826Z,0.00
2022-10-04T03:52:12.331Z,0.00
2022-10-04T03:53:12.830Z,0.00
2022-10-04T03:54:12.295Z,0.00
2022-10-04T03:55:12.282Z,0.00
2022-10-04T03:56:12.272Z,0.00
2022-10-04T03:57:12.259Z,0.00
2022-10-04T03:58:12.250Z,0.00
2022-10-04T03:59:12.237Z,0.00
2022-10-04T04:00:12.217Z,0.00
2022-10-04T04:01:12.308Z,0.00
2022-10-04T04:02:12.284Z,0.00
2022-10-04T04:03:12.385Z,0.00
2022-10-04T04:04:12.177Z,0.00
2022-10-04T04:05:12.166Z,0.00
2022-10-04T04:06:12.177Z,0.00
2022-10-04T04:07:12.150Z,0.00
2022-10-04T04:08:12.142Z,0.00
2022-10-04T04:09:12.146Z,0.00
2022-10-04T04:10:16.586Z,0.00
2022-10-04T04:11:12.104Z,0.00
2022-10-04T04:12:12.109Z,0.00
2022-10-04T04:13:12.083Z,0.00
2022-10-04T04:14:12.072Z,0.00
2022-10-04T04:15:12.069Z,0.00
2022-10-04T04:16:12.118Z,0.00
2022-10-04T04:17:12.045Z,0.00
2022-10-04T04:18:12.043Z,0.00
2022-10-04T04:19:12.020Z,0.00
2022-10-04T04:20:12.025Z,0.00
2022-10-04T04:21:12.007Z,0.00
2022-10-04T04:22:11.980Z,0.00
2022-10-04T04:23:11.977Z,0.00
2022-10-04T04:24:11.972Z,0.00
2022-10-04T04:25:11.956Z,0.00
2022-10-04T04:26:11.946Z,0.00
2022-10-04T04:27:11.934Z,0.00
2022-10-04T04:28:11.978Z,0.00
2022-10-04T04:29:11.909Z,0.00
2022-10-04T04:30:11.894Z,0.00
2022-10-04T04:31:11.948Z,0.00
2022-10-04T04:32:11.981Z,0.00
2022-10-04T04:33:11.873Z,0.00
2022-10-04T04:34:11.878Z,0.00
2022-10-04T04:35:11.845Z,0.00
2022-10-04T04:36:11.856Z,0.00
2022-10-04T04:37:11.825Z,0.00
2022-10-04T04:38:11.814Z,0.00
2022-10-04T04:39:11.794Z,0.00
2022-10-04T04:40:11.783Z,0.00
2022-10-04T04:41:11.780Z,0.00
2022-10-04T04:42:11.771Z,0.00
2022-10-04T04:43:11.755Z,0.00
2022-10-04T04:44:11.747Z,0.00
2022-10-04T04:45:11.738Z,4.00
2022-10-04T04:46:28.266Z,4.00
2022-10-04T04:47:17.545Z,0.00
2022-10-04T04:48:12.702Z,4.00
2022-10-04T04:49:11.687Z,4.00
2022-10-04T04:50:11.704Z,4.00
2022-10-04T04:51:11.672Z,4.00
2022-10-04T04:52:11.674Z,8.00
2022-10-04T04:53:11.663Z,8.00
2022-10-04T04:54:11.639Z,8.00
2022-10-04T04:55:11.621Z,12.00
2022-10-04T04:56:15.196Z,12.00
2022-10-04T04:57:12.639Z,12.00
2022-10-04T04:58:11.603Z,12.00
2022-10-04T04:59:11.582Z,20.00
2022-10-04T05:00:11.575Z,20.00
2022-10-04T05:01:11.577Z,24.00
2022-10-04T05:02:11.621Z,24.00
2022-10-04T05:03:11.534Z,28.00
2022-10-04T05:04:11.546Z,28.00
2022-10-04T05:05:11.515Z,32.00
2022-10-04T05:06:11.522Z,36.00
2022-10-04T05:07:11.497Z,48.00
2022-10-04T05:08:11.480Z,56.00
2022-10-04T05:09:11.481Z,60.00
2022-10-04T05:10:11.455Z,68.00
2022-10-04T05:11:11.454Z,80.00
2022-10-04T05:12:11.435Z,88.00
2022-10-04T05:13:11.431Z,96.00
2022-10-04T05:14:11.427Z,104.00
2022-10-04T05:15:11.418Z,120.00
2022-10-04T05:16:11.505Z,124.00
2022-10-04T05:17:11.389Z,136.00
2022-10-04T05:18:11.377Z,152.00
2022-10-04T05:19:11.363Z,168.00
2022-10-04T05:20:11.359Z,188.00
2022-10-04T05:21:11.336Z,180.00
2022-10-04T05:22:11.342Z,168.00
2022-10-04T05:23:11.323Z,176.00
2022-10-04T05:24:11.416Z,196.00
2022-10-04T05:25:11.407Z,168.00
2022-10-04T05:26:11.305Z,184.00
2022-10-04T05:27:11.270Z,216.00
2022-10-04T05:28:11.325Z,224.00
2022-10-04T05:29:11.249Z,236.00
2022-10-04T05:30:11.250Z,288.00
2022-10-04T05:31:11.239Z,312.00
2022-10-04T05:32:11.322Z,364.00
2022-10-04T05:33:11.217Z,400.00
2022-10-04T05:34:11.197Z,412.00
2022-10-04T05:35:11.190Z,460.00
2022-10-04T05:36:11.191Z,544.00
2022-10-04T05:37:11.170Z,424.00
2022-10-04T05:38:11.164Z,456.00
2022-10-04T05:39:11.146Z,528.00
2022-10-04T05:40:11.131Z,572.00
2022-10-04T05:41:11.157Z,620.00
2022-10-04T05:42:11.105Z,648.00
2022-10-04T05:43:11.096Z,640.00
2022-10-04T05:44:11.085Z,804.00
2022-10-04T05:45:11.078Z,712.00
2022-10-04T05:46:11.117Z,696.00
2022-10-04T05:47:11.075Z,824.00
2022-10-04T05:48:11.050Z,884.00
2022-10-04T05:49:14.351Z,1008.00
2022-10-04T05:50:12.029Z,1172.00
2022-10-04T05:51:11.011Z,1020.00
2022-10-04T05:52:11.020Z,876.00
2022-10-04T05:53:10.987Z,892.00
2022-10-04T05:54:11.092Z,776.00
2022-10-04T05:55:10.976Z,644.00
2022-10-04T05:56:10.955Z,572.00
2022-10-04T05:57:10.950Z,600.00
2022-10-04T05:58:10.941Z,660.00
2022-10-04T05:59:10.933Z,740.00
2022-10-04T06:00:10.930Z,640.00
2022-10-04T06:01:10.947Z,568.00
2022-10-04T06:02:10.915Z,872.00
2022-10-04T06:03:10.893Z,756.00
2022-10-04T06:04:10.896Z,640.00
2022-10-04T06:05:10.876Z,528.00
2022-10-04T06:06:10.856Z,696.00
2022-10-04T06:07:10.842Z,792.00
2022-10-04T06:08:10.835Z,1024.00
2022-10-04T06:09:10.838Z,1024.00
2022-10-04T06:10:10.819Z,1220.00
2022-10-04T06:11:10.801Z,1704.00
2022-10-04T06:12:10.781Z,2556.00
2022-10-04T06:13:10.781Z,2120.00
2022-10-04T06:14:10.777Z,2084.00
2022-10-04T06:15:10.773Z,2056.00
2022-10-04T06:16:10.739Z,2080.00
2022-10-04T06:17:10.734Z,2572.00
2022-10-04T06:18:10.722Z,2236.00
2022-10-04T06:19:10.714Z,2272.00
2022-10-04T06:20:10.739Z,2272.00
2022-10-04T06:21:10.692Z,2056.00
2022-10-04T06:22:10.681Z,2220.00
2022-10-04T06:23:10.662Z,2536.00
2022-10-04T06:24:10.660Z,2288.00
2022-10-04T06:25:10.642Z,3004.00
2022-10-04T06:26:10.667Z,3060.00
2022-10-04T06:27:10.631Z,2660.00
2022-10-04T06:28:10.644Z,2572.00
2022-10-04T06:29:10.614Z,2452.00
2022-10-04T06:30:10.588Z,2036.00
2022-10-04T06:31:10.630Z,1380.00
2022-10-04T06:32:10.580Z,1084.00
2022-10-04T06:33:10.554Z,1076.00
2022-10-04T06:34:10.620Z,1056.00
2022-10-04T06:35:10.541Z,1300.00
2022-10-04T06:36:10.543Z,1236.00
2022-10-04T06:37:10.512Z,996.00
2022-10-04T06:38:10.514Z,956.00
2022-10-04T06:39:10.493Z,892.00
2022-10-04T06:40:10.481Z,888.00
2022-10-04T06:41:10.481Z,784.00
2022-10-04T06:42:10.481Z,1176.00
2022-10-04T06:43:10.449Z,1368.00
2022-10-04T06:44:10.453Z,1700.00
2022-10-04T06:45:10.435Z,1712.00
2022-10-04T06:46:10.510Z,1972.00
2022-10-04T06:47:10.425Z,1920.00
2022-10-04T06:48:10.392Z,1868.00
2022-10-04T06:49:10.399Z,1368.00
2022-10-04T06:50:10.396Z,1160.00
2022-10-04T06:51:10.368Z,1052.00
2022-10-04T06:52:10.355Z,1188.00
2022-10-04T06:53:10.369Z,1200.00
2022-10-04T06:54:10.335Z,1068.00
2022-10-04T06:55:10.328Z,1264.00
2022-10-04T06:56:10.306Z,1000.00
2022-10-04T06:57:10.301Z,980.00
2022-10-04T06:58:10.298Z,1052.00
2022-10-04T06:59:10.286Z,988.00
2022-10-04T07:00:10.289Z,852.00
2022-10-04T07:01:10.346Z,720.00
2022-10-04T07:02:10.343Z,900.00
2022-10-04T07:03:10.232Z,1068.00
2022-10-04T07:04:10.220Z,1152.00
2022-10-04T07:05:10.244Z,1228.00
2022-10-04T07:06:10.223Z,912.00
2022-10-04T07:07:10.189Z,868.00
2022-10-04T07:08:10.183Z,844.00
2022-10-04T07:09:10.182Z,864.00
2022-10-04T07:10:10.164Z,1052.00
2022-10-04T07:11:12.429Z,1188.00
2022-10-04T07:12:10.159Z,1036.00
2022-10-04T07:13:10.150Z,936.00
2022-10-04T07:14:10.165Z,1152.00
2022-10-04T07:15:10.904Z,1920.00
2022-10-04T07:16:10.153Z,2148.00
2022-10-04T07:17:10.429Z,1700.00
2022-10-04T07:18:10.077Z,1336.00
2022-10-04T07:19:10.063Z,1612.00
2022-10-04T07:20:10.056Z,2968.00
2022-10-04T07:21:10.041Z,3864.00
2022-10-04T07:22:10.033Z,3428.00
2022-10-04T07:23:10.047Z,2320.00
2022-10-04T07:24:10.017Z,2264.00
2022-10-04T07:25:10.023Z,2260.00
2022-10-04T07:26:09.989Z,1708.00
2022-10-04T07:27:09.977Z,1800.00
2022-10-04T07:28:10.965Z,2680.00
2022-10-04T07:29:10.429Z,1804.00
2022-10-04T07:30:10.110Z,1368.00
2022-10-04T07:31:10.029Z,1172.00
2022-10-04T07:32:09.978Z,1340.00
2022-10-04T07:33:09.931Z,1440.00
2022-10-04T07:34:09.953Z,1192.00
2022-10-04T07:35:10.871Z,1272.00
2022-10-04T07:36:09.883Z,1380.00
2022-10-04T07:37:09.869Z,1148.00
2022-10-04T07:38:09.857Z,1180.00
2022-10-04T07:39:09.846Z,1312.00
2022-10-04T07:40:09.849Z,1216.00
2022-10-04T07:41:09.834Z,1192.00
2022-10-04T07:42:09.813Z,1276.00
2022-10-04T07:43:09.817Z,1884.00
2022-10-04T07:44:09.890Z,1172.00
2022-10-04T07:45:09.789Z,1516.00
2022-10-04T07:46:09.872Z,2644.00
2022-10-04T07:47:09.764Z,1828.00
2022-10-04T07:48:12.420Z,1328.00
2022-10-04T07:49:09.738Z,1724.00
2022-10-04T07:50:09.751Z,1596.00
2022-10-04T07:51:09.711Z,1572.00
2022-10-04T07:52:09.700Z,1516.00
2022-10-04T07:53:09.922Z,1276.00
2022-10-04T07:54:09.686Z,1236.00
2022-10-04T07:55:09.676Z,1980.00
2022-10-04T07:56:09.669Z,2692.00
2022-10-04T07:57:09.647Z,3800.00
2022-10-04T07:58:09.642Z,3804.00
2022-10-04T07:59:09.623Z,3072.00
2022-10-04T08:00:09.622Z,2208.00
2022-10-04T08:01:09.654Z,1676.00
2022-10-04T08:02:09.813Z,1148.00
2022-10-04T08:03:09.649Z,1452.00
2022-10-04T08:04:09.651Z,2308.00
2022-10-04T08:05:09.598Z,3652.00
2022-10-04T08:06:09.557Z,3284.00
2022-10-04T08:07:09.575Z,2144.00
2022-10-04T08:08:09.562Z,2276.00
2022-10-04T08:09:09.561Z,1508.00
2022-10-04T08:10:09.514Z,1940.00
2022-10-04T08:11:09.508Z,3128.00
2022-10-04T08:12:09.484Z,2452.00
2022-10-04T08:13:09.492Z,2684.00
2022-10-04T08:14:09.461Z,2952.00
2022-10-04T08:15:09.492Z,5268.00
2022-10-04T08:16:09.524Z,7260.00
2022-10-04T08:17:15.218Z,5940.00
2022-10-04T08:18:10.450Z,5224.00
2022-10-04T08:19:09.404Z,5856.00
2022-10-04T08:20:09.397Z,8388.00
2022-10-04T08:21:09.414Z,7968.00
2022-10-04T08:22:09.395Z,12444.00
2022-10-04T08:23:09.367Z,9924.00
2022-10-04T08:24:09.408Z,8600.00
2022-10-04T08:25:09.358Z,5096.00
2022-10-04T08:26:09.337Z,4812.00
2022-10-04T08:27:09.322Z,4568.00
2022-10-04T08:28:09.382Z,4356.00
2022-10-04T08:29:09.323Z,3668.00
2022-10-04T08:30:09.290Z,3628.00
2022-10-04T08:31:09.381Z,3544.00
2022-10-04T08:32:09.267Z,3904.00
2022-10-04T08:33:09.267Z,5312.00
2022-10-04T08:34:09.298Z,4896.00
2022-10-04T08:35:09.254Z,6672.00
2022-10-04T08:36:09.228Z,8468.00
2022-10-04T08:37:09.212Z,11852.00
2022-10-04T08:38:09.210Z,10492.00
2022-10-04T08:39:09.204Z,7336.00
2022-10-04T08:40:12.847Z,8196.00
2022-10-04T08:41:09.180Z,9052.00
2022-10-04T08:42:09.161Z,11576.00
2022-10-04T08:43:09.145Z,13628.00
2022-10-04T08:44:09.151Z,32992.00
2022-10-04T08:45:09.148Z,12144.00
2022-10-04T08:46:09.185Z,9356.00
2022-10-04T08:47:09.108Z,10816.00
2022-10-04T08:48:09.111Z,16288.00
2022-10-04T08:49:09.088Z,11568.00
2022-10-04T08:50:09.087Z,15248.00
2022-10-04T08:51:09.066Z,28352.00
2022-10-04T08:52:09.048Z,19776.00
2022-10-04T08:53:11.119Z,21184.00
2022-10-04T08:54:09.138Z,12344.00
2022-10-04T08:55:09.024Z,10984.00
2022-10-04T08:56:09.029Z,16640.00
2022-10-04T08:57:13.494Z,10052.00
2022-10-04T08:58:09.007Z,16128.00
2022-10-04T08:59:08.983Z,18688.00
2022-10-04T09:00:08.968Z,20544.00
2022-10-04T09:01:09.034Z,8628.00
2022-10-04T09:02:08.958Z,8048.00
2022-10-04T09:03:08.977Z,7988.00
2022-10-04T09:04:08.938Z,7620.00
2022-10-04T09:05:08.911Z,7876.00
2022-10-04T09:06:08.926Z,30720.00
2022-10-04T09:07:08.910Z,12972.00
2022-10-04T09:08:08.877Z,13960.00
2022-10-04T09:09:08.878Z,13856.00
2022-10-04T09:10:08.870Z,21568.00
2022-10-04T09:11:08.858Z,26848.00
2022-10-04T09:12:08.834Z,19744.00
2022-10-04T09:13:08.831Z,21856.00
2022-10-04T09:14:08.839Z,12444.00
2022-10-04T09:15:08.806Z,11876.00
2022-10-04T09:16:08.860Z,12604.00
2022-10-04T09:17:08.790Z,13756.00
2022-10-04T09:18:08.776Z,12884.00
2022-10-04T09:19:08.766Z,15004.00
2022-10-04T09:20:33.448Z,18464.00
2022-10-04T09:21:16.543Z,13284.00
2022-10-04T09:22:08.945Z,14560.00
2022-10-04T09:23:08.801Z,11892.00
2022-10-04T09:24:08.709Z,12024.00
2022-10-04T09:25:08.703Z,11884.00
2022-10-04T09:26:08.694Z,13044.00
2022-10-04T09:27:08.703Z,11644.00
2022-10-04T09:28:08.730Z,12708.00
2022-10-04T09:29:08.651Z,8916.00
2022-10-04T09:30:08.636Z,7508.00
2022-10-04T09:31:08.698Z,6764.00
2022-10-04T09:32:08.627Z,7964.00
2022-10-04T09:33:08.687Z,8392.00
2022-10-04T09:34:08.666Z,8324.00
2022-10-04T09:35:08.595Z,8548.00
2022-10-04T09:36:08.641Z,8912.00
2022-10-04T09:37:08.651Z,9072.00
2022-10-04T09:38:08.554Z,9668.00
2022-10-04T09:39:28.976Z,10228.00
2022-10-04T09:40:09.542Z,11444.00
2022-10-04T09:41:08.519Z,14924.00
2022-10-04T09:42:08.535Z,14024.00
2022-10-04T09:43:08.506Z,9836.00
2022-10-04T09:44:08.496Z,8272.00
2022-10-04T09:45:08.491Z,9672.00
2022-10-04T09:46:08.570Z,12548.00
2022-10-04T09:47:08.455Z,10592.00
2022-10-04T09:48:08.448Z,8596.00
2022-10-04T09:49:08.452Z,7668.00
2022-10-04T09:50:08.436Z,9056.00
2022-10-04T09:51:08.466Z,10296.00
2022-10-04T09:52:15.511Z,11624.00
2022-10-04T09:53:08.396Z,11448.00
2022-10-04T09:54:08.380Z,10928.00
2022-10-04T09:55:08.391Z,8284.00
2022-10-04T09:56:08.369Z,8552.00
2022-10-04T09:57:08.368Z,9088.00
2022-10-04T09:58:08.370Z,10248.00
2022-10-04T09:59:08.338Z,10712.00
2022-10-04T10:00:08.335Z,9872.00
2022-10-04T10:01:08.327Z,9736.00
2022-10-04T10:02:08.377Z,7444.00
2022-10-04T10:03:11.083Z,7076.00
2022-10-04T10:04:09.284Z,7636.00
2022-10-04T10:05:08.267Z,7592.00
2022-10-04T10:06:08.273Z,7788.00
2022-10-04T10:07:08.246Z,8036.00
2022-10-04T10:08:08.243Z,8460.00
2022-10-04T10:09:08.224Z,8324.00
2022-10-04T10:10:08.211Z,8264.00
2022-10-04T10:11:08.229Z,7572.00
2022-10-04T10:12:08.189Z,7620.00
2022-10-04T10:13:08.183Z,7548.00
2022-10-04T10:14:08.165Z,7384.00
2022-10-04T10:15:08.159Z,6928.00
2022-10-04T10:16:08.190Z,6920.00
2022-10-04T10:17:08.159Z,6176.00
2022-10-04T10:18:08.128Z,5528.00
2022-10-04T10:19:08.120Z,9756.00
2022-10-04T10:20:08.132Z,9416.00
2022-10-04T10:21:08.101Z,8512.00
2022-10-04T10:22:08.103Z,9616.00
2022-10-04T10:23:08.141Z,9316.00
2022-10-04T10:24:08.089Z,10836.00
2022-10-04T10:25:08.053Z,10720.00
2022-10-04T10:26:08.045Z,10164.00
2022-10-04T10:27:08.023Z,9784.00
2022-10-04T10:28:08.090Z,9940.00
2022-10-04T10:29:08.017Z,11988.00
2022-10-04T10:30:08.002Z,12140.00
2022-10-04T10:31:08.059Z,10116.00
2022-10-04T10:32:07.982Z,8808.00
2022-10-04T10:33:07.961Z,8308.00
2022-10-04T10:34:07.951Z,9576.00
2022-10-04T10:35:07.974Z,8528.00
2022-10-04T10:36:07.927Z,10884.00
2022-10-04T10:37:07.916Z,9236.00
2022-10-04T10:38:07.912Z,8128.00
2022-10-04T10:39:07.915Z,8372.00
2022-10-04T10:40:07.907Z,8424.00
2022-10-04T10:41:07.887Z,6788.00
2022-10-04T10:42:07.881Z,6040.00
2022-10-04T10:43:07.868Z,6620.00
2022-10-04T10:44:07.842Z,7168.00
2022-10-04T10:45:07.839Z,6736.00
2022-10-04T10:46:07.917Z,6828.00
2022-10-04T10:47:07.817Z,7372.00
2022-10-04T10:48:07.794Z,8280.00
2022-10-04T10:49:07.856Z,8180.00
2022-10-04T10:50:07.795Z,6396.00
2022-10-04T10:51:07.772Z,5464.00
2022-10-04T10:52:07.755Z,4996.00
2022-10-04T10:53:07.754Z,5768.00
2022-10-04T10:54:07.742Z,7424.00
2022-10-04T10:55:07.731Z,7192.00
2022-10-04T10:56:07.737Z,7276.00
2022-10-04T10:57:07.736Z,6128.00
2022-10-04T10:58:07.694Z,5288.00
2022-10-04T10:59:07.686Z,6000.00
2022-10-04T11:00:07.677Z,6580.00
2022-10-04T11:01:07.659Z,5200.00
2022-10-04T11:02:07.811Z,3720.00
2022-10-04T11:03:13.693Z,3804.00
2022-10-04T11:04:07.637Z,5348.00
2022-10-04T11:05:07.636Z,7152.00
2022-10-04T11:06:07.613Z,7872.00
2022-10-04T11:07:07.601Z,7036.00
2022-10-04T11:08:07.589Z,7372.00
2022-10-04T11:09:07.572Z,6584.00
2022-10-04T11:10:07.567Z,4892.00
2022-10-04T11:11:07.561Z,5164.00
2022-10-04T11:12:07.579Z,6536.00
2022-10-04T11:13:07.527Z,8936.00
2022-10-04T11:14:07.549Z,8348.00
2022-10-04T11:15:07.514Z,6072.00
2022-10-04T11:16:07.561Z,6188.00
2022-10-04T11:17:07.504Z,6460.00
2022-10-04T11:18:07.497Z,6260.00
2022-10-04T11:19:07.466Z,6460.00
2022-10-04T11:20:07.449Z,6992.00
2022-10-04T11:21:07.439Z,6772.00
2022-10-04T11:22:07.507Z,6572.00
2022-10-04T11:23:07.442Z,5916.00
2022-10-04T11:24:07.434Z,5216.00
2022-10-04T11:25:07.412Z,4780.00
2022-10-04T11:26:07.401Z,7848.00
2022-10-04T11:27:07.388Z,6092.00
2022-10-04T11:28:07.470Z,6612.00
2022-10-04T11:29:07.374Z,5972.00
2022-10-04T11:30:07.367Z,5716.00
2022-10-04T11:31:07.421Z,5356.00
2022-10-04T11:32:07.339Z,6512.00
2022-10-04T11:33:07.322Z,8156.00
2022-10-04T11:34:07.313Z,8868.00
2022-10-04T11:35:07.304Z,10104.00
2022-10-04T11:36:07.287Z,10084.00
2022-10-04T11:37:07.287Z,7564.00
2022-10-04T11:38:07.262Z,7440.00
2022-10-04T11:39:07.263Z,8616.00
2022-10-04T11:40:07.242Z,9908.00
2022-10-04T11:41:07.245Z,10616.00
2022-10-04T11:42:07.219Z,10456.00
2022-10-04T11:43:07.216Z,8624.00
2022-10-04T11:44:07.242Z,7892.00
2022-10-04T11:45:07.187Z,5396.00
2022-10-04T11:46:10.685Z,4936.00
2022-10-04T11:47:07.244Z,5872.00
2022-10-04T11:48:07.165Z,6184.00
2022-10-04T11:49:07.149Z,5064.00
2022-10-04T11:50:07.148Z,6404.00
2022-10-04T11:51:07.126Z,7024.00
2022-10-04T11:52:07.107Z,4900.00
2022-10-04T11:53:07.110Z,4088.00
2022-10-04T11:54:07.113Z,4640.00
2022-10-04T11:55:07.080Z,5516.00
2022-10-04T11:56:07.099Z,5900.00
2022-10-04T11:57:07.065Z,6148.00
2022-10-04T11:58:11.722Z,6224.00
2022-10-04T11:59:08.033Z,6060.00
2022-10-04T12:00:07.045Z,5628.00
2022-10-04T12:01:07.013Z,5104.00
2022-10-04T12:02:07.061Z,4748.00
2022-10-04T12:03:07.073Z,4556.00
2022-10-04T12:04:07.186Z,4524.00
2022-10-04T12:05:06.980Z,4876.00
2022-10-04T12:06:06.987Z,4736.00
2022-10-04T12:07:06.947Z,4132.00
2022-10-04T12:08:06.988Z,3852.00
2022-10-04T12:09:06.928Z,4000.00
2022-10-04T12:10:06.913Z,4368.00
2022-10-04T12:11:06.927Z,5124.00
2022-10-04T12:12:06.894Z,5824.00
2022-10-04T12:13:06.902Z,5860.00
2022-10-04T12:14:06.913Z,7080.00
2022-10-04T12:15:06.868Z,6208.00
2022-10-04T12:16:06.955Z,6124.00
2022-10-04T12:17:06.852Z,6928.00
2022-10-04T12:18:06.833Z,6408.00
2022-10-04T12:19:06.849Z,6268.00
2022-10-04T12:20:11.921Z,4604.00
2022-10-04T12:21:07.804Z,4304.00
2022-10-04T12:22:06.793Z,3696.00
2022-10-04T12:23:06.786Z,5740.00
2022-10-04T12:24:06.763Z,6032.00
2022-10-04T12:25:06.771Z,6896.00
2022-10-04T12:26:06.747Z,4100.00
2022-10-04T12:27:06.733Z,3764.00
2022-10-04T12:28:06.815Z,3280.00
2022-10-04T12:29:06.712Z,3604.00
2022-10-04T12:30:06.771Z,3744.00
2022-10-04T12:31:06.719Z,4204.00
2022-10-04T12:32:06.810Z,3896.00
2022-10-04T12:33:06.670Z,5148.00